St Pete Beach, Florida
Current Conditions -  °F | °C
As of 8:53 AM on Saturday 22 Nov 2014 (Local Time) from KSPG Reporting Station
Overcast Overcast  
Wind Chill: 65°   Ceiling: 5000
Heat Index: 65°   Visibility: 10mi
Dew Point: 61°   Wind: 10mph
Humidity: 87%   Direction: 60°ENE
Pressure: 30.2"   Gusts: NA
Location:  27.7426°N, 82.7481°W
Report Text: KSPG 221353Z 06009KT 10SM OVC050 18/16 A3020 RMK AO2 SLP227 T01830161
Loading
Personal Weather Stations






























Interactive Weather Map New forecast layout! Learn more

10-Day Weather Forecast

Advertisements
Track Severe Weather on mobile